createdAt,value
2022-09-12T00:01:29.388Z,8.90
2022-09-12T00:04:02.191Z,8.90
2022-09-12T00:06:34.642Z,8.88
2022-09-12T00:09:11.064Z,8.87
2022-09-12T00:11:41.977Z,8.89
2022-09-12T00:14:24.786Z,8.87
2022-09-12T00:17:07.149Z,8.86
2022-09-12T00:19:36.125Z,8.82
2022-09-12T00:22:05.624Z,8.80
2022-09-12T00:24:34.983Z,8.78
2022-09-12T00:27:04.650Z,8.76
2022-09-12T00:29:47.266Z,8.75
2022-09-12T00:32:17.985Z,8.75
2022-09-12T00:35:00.521Z,8.75
2022-09-12T00:37:30.206Z,8.75
2022-09-12T00:39:59.798Z,8.73
2022-09-12T00:42:28.788Z,8.72
2022-09-12T00:45:27.780Z,8.71
2022-09-12T00:48:03.070Z,8.70
2022-09-12T00:50:33.651Z,8.69
2022-09-12T00:53:17.641Z,8.66
2022-09-12T00:55:50.629Z,8.64
2022-09-12T00:58:42.222Z,8.63
2022-09-12T01:01:11.643Z,8.60
2022-09-12T01:03:40.807Z,8.57
2022-09-12T01:06:24.097Z,8.52
2022-09-12T01:09:07.898Z,8.47
2022-09-12T01:11:39.372Z,8.43
2022-09-12T01:14:09.450Z,8.39
2022-09-12T01:16:38.935Z,8.37
2022-09-12T01:19:46.662Z,8.37
2022-09-12T01:22:41.785Z,8.35
2022-09-12T01:25:38.139Z,8.35
2022-09-12T01:28:35.847Z,8.33
2022-09-12T01:31:10.865Z,8.29
2022-09-12T01:33:58.890Z,8.25
2022-09-12T01:36:46.704Z,8.22
2022-09-12T01:39:23.662Z,8.20
2022-09-12T01:41:56.550Z,8.20
2022-09-12T01:45:11.740Z,8.18
2022-09-12T01:47:47.034Z,8.18
2022-09-12T01:50:29.703Z,8.18
2022-09-12T01:53:05.467Z,8.18
2022-09-12T01:55:43.346Z,8.19
2022-09-12T01:58:21.670Z,8.17
2022-09-12T02:01:33.723Z,8.16
2022-09-12T02:04:54.136Z,8.15
2022-09-12T02:07:50.305Z,8.13
2022-09-12T02:10:30.363Z,8.14
2022-09-12T02:13:01.775Z,8.15
2022-09-12T02:15:59.106Z,8.16
2022-09-12T02:18:30.312Z,8.18
2022-09-12T02:21:01.352Z,8.19
2022-09-12T02:23:49.375Z,8.20
2022-09-12T02:26:28.100Z,8.20
2022-09-12T02:28:58.010Z,8.19
2022-09-12T02:31:54.087Z,8.18
2022-09-12T02:35:16.214Z,8.17
2022-09-12T02:38:09.825Z,8.16
2022-09-12T02:40:39.446Z,8.16
2022-09-12T02:43:08.582Z,8.16
2022-09-12T02:45:38.314Z,8.16
2022-09-12T02:48:31.624Z,8.13
2022-09-12T02:51:14.945Z,8.12
2022-09-12T02:53:44.379Z,8.09
2022-09-12T02:56:20.335Z,8.06
2022-09-12T02:58:50.200Z,8.05
2022-09-12T03:01:51.925Z,8.05
2022-09-12T03:04:40.462Z,8.05
2022-09-12T03:07:34.224Z,8.05
2022-09-12T03:10:25.248Z,8.04
2022-09-12T03:13:19.054Z,8.02
2022-09-12T03:16:12.745Z,7.99
2022-09-12T03:19:14.103Z,7.99
2022-09-12T03:21:56.651Z,7.97
2022-09-12T03:24:58.090Z,7.94
2022-09-12T03:27:36.844Z,7.93
2022-09-12T03:30:19.808Z,7.89
2022-09-12T03:32:55.677Z,7.87
2022-09-12T03:35:39.045Z,7.84
2022-09-12T03:38:08.429Z,7.81
2022-09-12T03:40:54.681Z,7.79
2022-09-12T03:43:24.871Z,7.79
2022-09-12T03:45:54.707Z,7.78
2022-09-12T03:48:24.276Z,7.78
2022-09-12T03:51:09.706Z,7.78
2022-09-12T03:53:52.141Z,7.79
2022-09-12T03:56:21.497Z,7.79
2022-09-12T03:58:50.502Z,7.78
2022-09-12T04:01:33.984Z,7.77
2022-09-12T04:04:16.834Z,7.75
2022-09-12T04:06:46.055Z,7.73
2022-09-12T04:09:15.586Z,7.72
2022-09-12T04:11:45.218Z,7.70
2022-09-12T04:14:14.488Z,7.68
2022-09-12T04:16:43.963Z,7.68
2022-09-12T04:19:14.054Z,7.68
2022-09-12T04:21:43.878Z,7.68
2022-09-12T04:24:13.472Z,7.67
2022-09-12T04:26:42.654Z,7.67
2022-09-12T04:29:13.224Z,7.66
2022-09-12T04:31:42.873Z,7.64
2022-09-12T04:34:11.895Z,7.62
2022-09-12T04:36:40.877Z,7.63
2022-09-12T04:39:12.862Z,7.63
2022-09-12T04:41:42.675Z,7.64
2022-09-12T04:44:25.784Z,7.65
2022-09-12T04:47:08.366Z,7.67
2022-09-12T04:49:37.865Z,7.68
2022-09-12T04:52:08.307Z,7.70
2022-09-12T04:54:38.470Z,7.71
2022-09-12T04:57:07.532Z,7.72
2022-09-12T04:59:36.816Z,7.74
2022-09-12T05:02:06.161Z,7.75
2022-09-12T05:04:36.230Z,7.76
2022-09-12T05:07:06.607Z,7.77
2022-09-12T05:09:49.436Z,7.81
2022-09-12T05:12:19.183Z,7.85
2022-09-12T05:14:47.991Z,7.87
2022-09-12T05:17:17.452Z,7.88
2022-09-12T05:19:48.329Z,7.88
2022-09-12T05:22:31.168Z,7.90
2022-09-12T05:25:00.269Z,7.93
2022-09-12T05:27:28.964Z,7.95
2022-09-12T05:29:57.791Z,7.96
2022-09-12T05:32:26.676Z,7.98
2022-09-12T05:34:56.317Z,8.02
2022-09-12T05:37:25.441Z,8.10
2022-09-12T05:39:54.288Z,8.20
2022-09-12T05:42:37.567Z,8.32
2022-09-12T05:45:07.387Z,8.40
2022-09-12T05:47:36.361Z,8.46
2022-09-12T05:50:11.043Z,8.49
2022-09-12T05:52:55.103Z,8.53
2022-09-12T05:55:24.613Z,8.56
2022-09-12T05:57:54.760Z,8.60
2022-09-12T06:00:24.607Z,8.65
2022-09-12T06:02:53.985Z,8.68
2022-09-12T06:05:23.160Z,8.73
2022-09-12T06:07:52.707Z,8.78
2022-09-12T06:10:23.740Z,8.84
2022-09-12T06:12:52.727Z,8.90
2022-09-12T06:15:36.044Z,8.98
2022-09-12T06:18:05.483Z,9.06
2022-09-12T06:20:37.731Z,9.15
2022-09-12T06:23:09.388Z,9.24
2022-09-12T06:25:38.460Z,9.33
2022-09-12T06:28:08.740Z,9.45
2022-09-12T06:30:38.105Z,9.53
2022-09-12T06:33:21.348Z,9.63
2022-09-12T06:35:51.302Z,9.73
2022-09-12T06:38:26.774Z,9.83
2022-09-12T06:40:56.712Z,9.93
2022-09-12T06:43:41.084Z,10.04
2022-09-12T06:46:11.477Z,10.14
2022-09-12T06:48:56.214Z,10.24
2022-09-12T06:51:27.099Z,10.33
2022-09-12T06:53:57.980Z,10.43
2022-09-12T06:56:40.500Z,10.56
2022-09-12T06:59:23.583Z,10.68
2022-09-12T07:02:06.799Z,10.81
2022-09-12T07:04:37.752Z,10.92
2022-09-12T07:07:07.145Z,11.03
2022-09-12T07:09:50.156Z,11.15
2022-09-12T07:12:18.750Z,11.26
2022-09-12T07:14:48.569Z,11.37
2022-09-12T07:17:17.855Z,11.45
2022-09-12T07:19:46.729Z,11.55
2022-09-12T07:22:29.688Z,11.67
2022-09-12T07:24:59.388Z,11.76
2022-09-12T07:27:42.155Z,11.85
2022-09-12T07:30:11.707Z,11.93
2022-09-12T07:33:17.646Z,12.04
2022-09-12T07:36:05.499Z,12.15
2022-09-12T07:38:37.489Z,12.23
2022-09-12T07:41:25.653Z,12.30
2022-09-12T07:44:00.207Z,12.36
2022-09-12T07:46:32.184Z,12.48
2022-09-12T07:49:02.955Z,12.56
2022-09-12T07:51:46.028Z,12.65
2022-09-12T07:54:15.033Z,12.72
2022-09-12T07:56:43.900Z,12.77
2022-09-12T07:59:25.368Z,12.83
2022-09-12T08:02:04.493Z,12.90
2022-09-12T08:04:33.764Z,12.98
2022-09-12T08:07:03.254Z,13.06
2022-09-12T08:09:32.379Z,13.14
2022-09-12T08:12:01.684Z,13.22
2022-09-12T08:14:31.577Z,13.31
2022-09-12T08:17:00.571Z,13.39
2022-09-12T08:19:29.975Z,13.48
2022-09-12T08:22:06.112Z,13.55
2022-09-12T08:24:36.673Z,13.61
2022-09-12T08:27:19.158Z,13.63
2022-09-12T08:29:48.130Z,13.67
2022-09-12T08:32:17.089Z,13.73
2022-09-12T08:34:46.309Z,13.76
2022-09-12T08:37:16.023Z,13.85
2022-09-12T08:39:44.979Z,14.02
2022-09-12T08:42:43.134Z,14.11
2022-09-12T08:46:00.640Z,14.22
2022-09-12T08:49:19.432Z,14.23
2022-09-12T08:52:32.037Z,14.20
2022-09-12T08:55:23.652Z,14.19
2022-09-12T08:57:53.677Z,14.20
2022-09-12T09:00:23.346Z,14.24
2022-09-12T09:03:46.930Z,14.26
2022-09-12T09:07:01.955Z,14.33
2022-09-12T09:10:04.522Z,14.33
2022-09-12T09:12:55.723Z,14.33
2022-09-12T09:16:03.441Z,14.39
2022-09-12T09:18:37.879Z,14.45
2022-09-12T09:21:46.300Z,14.50
2022-09-12T09:24:21.154Z,14.58
2022-09-12T09:27:14.290Z,14.62
2022-09-12T09:30:29.455Z,14.67
2022-09-12T09:33:22.726Z,14.72
2022-09-12T09:36:45.475Z,14.76
2022-09-12T09:39:30.575Z,14.80
2022-09-12T09:42:20.783Z,14.76
2022-09-12T09:47:55.491Z,14.74
2022-09-12T09:50:25.027Z,14.84
2022-09-12T09:52:56.343Z,14.92
2022-09-12T09:55:31.335Z,15.00
2022-09-12T09:58:00.816Z,15.09
2022-09-12T10:00:36.197Z,15.27
2022-09-12T10:03:13.808Z,15.44
2022-09-12T10:05:50.028Z,15.52
2022-09-12T10:08:33.196Z,15.57
2022-09-12T10:11:20.889Z,15.61
2022-09-12T10:14:00.996Z,15.55
2022-09-12T10:16:35.891Z,15.48
2022-09-12T10:19:05.292Z,15.44
2022-09-12T10:22:01.476Z,15.40
2022-09-12T10:24:38.305Z,15.39
2022-09-12T10:27:24.876Z,15.37
2022-09-12T10:30:17.756Z,15.33
2022-09-12T10:32:52.671Z,15.32
2022-09-12T10:35:25.328Z,15.33
2022-09-12T10:38:02.497Z,15.31
2022-09-12T10:40:45.351Z,15.30
2022-09-12T10:43:31.652Z,15.37
2022-09-12T10:46:19.884Z,15.39
2022-09-12T10:49:12.872Z,15.42
2022-09-12T10:51:42.251Z,15.46
2022-09-12T10:54:15.934Z,15.55
2022-09-12T10:57:08.059Z,15.65
2022-09-12T11:00:28.077Z,15.78
2022-09-12T11:03:05.884Z,15.86
2022-09-12T11:05:42.513Z,15.85
2022-09-12T11:08:49.786Z,15.84
2022-09-12T11:11:19.177Z,15.81
2022-09-12T11:14:22.251Z,15.91
2022-09-12T11:17:29.328Z,16.05
2022-09-12T11:20:24.171Z,16.09
2022-09-12T11:23:12.031Z,16.17
2022-09-12T11:26:03.922Z,16.26
2022-09-12T11:28:52.033Z,16.24
2022-09-12T11:31:52.399Z,16.25
2022-09-12T11:35:08.849Z,16.34
2022-09-12T11:38:16.107Z,16.50
2022-09-12T11:41:11.540Z,16.63
2022-09-12T11:43:49.400Z,16.55
2022-09-12T11:46:32.331Z,16.41
2022-09-12T11:49:35.760Z,16.38
2022-09-12T11:52:18.319Z,16.49
2022-09-12T11:54:59.669Z,16.67
2022-09-12T11:57:40.151Z,16.88
2022-09-12T12:00:40.615Z,17.06
2022-09-12T12:03:31.660Z,16.97
2022-09-12T12:06:21.693Z,17.03
2022-09-12T12:08:52.485Z,17.26
2022-09-12T12:11:40.588Z,17.40
2022-09-12T12:14:25.984Z,17.26
2022-09-12T12:17:30.295Z,17.15
2022-09-12T12:20:07.670Z,17.00
2022-09-12T12:22:37.933Z,16.95
2022-09-12T12:25:13.038Z,16.90
2022-09-12T12:27:47.591Z,16.88
2022-09-12T12:30:38.652Z,16.82
2022-09-12T12:33:28.163Z,16.72
2022-09-12T12:36:05.351Z,16.66
2022-09-12T12:38:39.809Z,16.67
2022-09-12T12:41:23.498Z,16.90
2022-09-12T12:43:56.676Z,17.09
2022-09-12T12:46:30.501Z,17.12
2022-09-12T12:49:20.833Z,17.04
2022-09-12T12:51:55.638Z,16.89
2022-09-12T12:54:41.384Z,16.79
2022-09-12T12:57:31.595Z,16.67
2022-09-12T13:00:32.950Z,16.57
2022-09-12T13:03:04.707Z,16.49
2022-09-12T13:05:47.329Z,16.46
2022-09-12T13:08:23.979Z,16.45
2022-09-12T13:10:58.293Z,16.43
2022-09-12T13:13:46.018Z,16.41
2022-09-12T13:16:48.410Z,16.32
2022-09-12T13:19:33.470Z,16.25
2022-09-12T13:22:15.997Z,16.18
2022-09-12T13:24:52.405Z,16.14
2022-09-12T13:27:25.839Z,16.13
2022-09-12T13:30:15.504Z,16.11
2022-09-12T13:32:44.774Z,16.08
2022-09-12T13:35:34.976Z,16.09
2022-09-12T13:38:36.037Z,16.09
2022-09-12T13:41:42.542Z,16.11
2022-09-12T13:44:15.356Z,16.12
2022-09-12T13:46:44.547Z,16.18
2022-09-12T13:49:37.590Z,16.23
2022-09-12T13:52:23.670Z,16.29
2022-09-12T13:54:55.817Z,16.28
2022-09-12T13:57:37.971Z,16.24
2022-09-12T14:00:22.750Z,16.20
2022-09-12T14:06:13.040Z,16.03
2022-09-12T14:08:43.592Z,16.01
2022-09-12T14:11:17.955Z,16.05
2022-09-12T14:13:47.156Z,16.08
2022-09-12T14:16:17.528Z,16.14
2022-09-12T14:18:50.371Z,16.19
2022-09-12T14:21:34.591Z,16.34
2022-09-12T14:24:10.817Z,16.53
2022-09-12T14:26:44.884Z,16.71
2022-09-12T14:29:27.885Z,16.74
2022-09-12T14:32:05.441Z,16.67
2022-09-12T14:34:34.616Z,16.62
2022-09-12T14:37:07.352Z,16.54
2022-09-12T14:39:45.347Z,16.43
2022-09-12T14:42:22.447Z,16.29
2022-09-12T14:45:04.717Z,16.19
2022-09-12T14:47:51.510Z,16.08
2022-09-12T14:53:19.998Z,15.98
2022-09-12T14:56:06.582Z,15.96
2022-09-12T14:58:36.018Z,15.91
2022-09-12T15:01:08.490Z,15.87
2022-09-12T15:03:48.866Z,15.85
2022-09-12T15:06:33.416Z,15.86
2022-09-12T15:09:13.578Z,15.85
2022-09-12T15:11:42.340Z,15.84
2022-09-12T15:14:15.289Z,15.82
2022-09-12T15:16:44.555Z,15.81
2022-09-12T15:19:13.622Z,15.77
2022-09-12T15:21:42.999Z,15.74
2022-09-12T15:24:21.477Z,15.73
2022-09-12T15:27:11.733Z,15.69
2022-09-12T15:29:40.278Z,15.63
2022-09-12T15:32:15.458Z,15.58
2022-09-12T15:35:02.403Z,15.56
2022-09-12T15:37:37.474Z,15.55
2022-09-12T15:40:06.897Z,15.55
2022-09-12T15:42:35.702Z,15.52
2022-09-12T15:45:15.559Z,15.51
2022-09-12T15:47:45.204Z,15.46
2022-09-12T15:50:14.591Z,15.41
2022-09-12T15:52:43.941Z,15.39
2022-09-12T15:55:32.496Z,15.38
2022-09-12T15:58:06.280Z,15.48
2022-09-12T16:00:49.628Z,15.62
2022-09-12T16:03:33.050Z,15.68
2022-09-12T16:06:03.549Z,15.75
2022-09-12T16:08:33.441Z,15.82
2022-09-12T16:11:22.581Z,15.86
2022-09-12T16:13:55.541Z,15.88
2022-09-12T16:16:24.475Z,15.88
2022-09-12T16:18:53.419Z,15.85
2022-09-12T16:21:22.557Z,15.86
2022-09-12T16:23:51.716Z,15.83
2022-09-12T16:26:34.510Z,15.84
2022-09-12T16:29:03.559Z,15.86
2022-09-12T16:31:33.156Z,15.85
2022-09-12T16:34:02.093Z,15.84
2022-09-12T16:36:31.051Z,15.81
2022-09-12T16:39:00.410Z,15.78
2022-09-12T16:41:29.327Z,15.76
2022-09-12T16:43:58.522Z,15.69
2022-09-12T16:46:29.378Z,15.59
2022-09-12T16:49:12.668Z,15.45
2022-09-12T16:51:55.178Z,15.29
2022-09-12T16:54:42.178Z,15.15
2022-09-12T16:57:25.005Z,14.98
2022-09-12T17:00:08.522Z,14.85
2022-09-12T17:02:37.467Z,14.77
2022-09-12T17:05:07.649Z,14.68
2022-09-12T17:07:36.591Z,14.58
2022-09-12T17:10:05.693Z,14.46
2022-09-12T17:12:35.242Z,14.33
2022-09-12T17:15:04.541Z,14.23
2022-09-12T17:17:33.755Z,14.15
2022-09-12T17:20:02.808Z,14.07
2022-09-12T17:22:32.675Z,13.99
2022-09-12T17:25:06.689Z,13.92
2022-09-12T17:27:51.651Z,13.84
2022-09-12T17:30:23.424Z,13.76
2022-09-12T17:32:56.335Z,13.68
2022-09-12T17:35:27.230Z,13.58
2022-09-12T17:37:56.525Z,13.50
2022-09-12T17:40:42.473Z,13.43
2022-09-12T17:43:15.798Z,13.35
2022-09-12T17:45:45.526Z,13.28
2022-09-12T17:48:16.312Z,13.20
2022-09-12T17:51:08.024Z,13.13
2022-09-12T17:53:38.509Z,13.05
2022-09-12T17:56:08.992Z,12.96
2022-09-12T17:58:51.526Z,12.88
2022-09-12T18:01:38.945Z,12.82
2022-09-12T18:04:13.723Z,12.75
2022-09-12T18:06:51.227Z,12.65
2022-09-12T18:09:23.770Z,12.55
2022-09-12T18:11:53.907Z,12.46
2022-09-12T18:14:23.253Z,12.41
2022-09-12T18:16:52.429Z,12.35
2022-09-12T18:19:21.553Z,12.28
2022-09-12T18:21:50.252Z,12.21
2022-09-12T18:24:20.423Z,12.15
2022-09-12T18:26:49.061Z,12.10
2022-09-12T18:29:20.639Z,12.02
2022-09-12T18:31:50.896Z,11.94
2022-09-12T18:34:20.898Z,11.87
2022-09-12T18:37:05.977Z,11.80
2022-09-12T18:39:35.513Z,11.75
2022-09-12T18:42:18.424Z,11.70
2022-09-12T18:44:48.280Z,11.66
2022-09-12T18:47:17.401Z,11.62
2022-09-12T18:49:46.267Z,11.56
2022-09-12T18:52:18.865Z,11.50
2022-09-12T18:54:48.196Z,11.44
2022-09-12T18:57:17.107Z,11.40
2022-09-12T18:59:59.941Z,11.34
2022-09-12T19:02:29.468Z,11.25
2022-09-12T19:04:58.478Z,11.17
2022-09-12T19:07:41.555Z,11.08
2022-09-12T19:10:10.394Z,10.99
2022-09-12T19:12:38.999Z,10.90
2022-09-12T19:15:10.213Z,10.82
2022-09-12T19:17:39.396Z,10.77
2022-09-12T19:20:08.251Z,10.72
2022-09-12T19:22:37.310Z,10.68
2022-09-12T19:25:06.813Z,10.65
2022-09-12T19:27:35.895Z,10.60
2022-09-12T19:30:05.897Z,10.56
2022-09-12T19:32:48.249Z,10.53
2022-09-12T19:35:16.713Z,10.47
2022-09-12T19:37:45.711Z,10.41
2022-09-12T19:40:15.246Z,10.36
2022-09-12T19:42:45.256Z,10.31
2022-09-12T19:45:15.532Z,10.27
2022-09-12T19:47:45.300Z,10.25
2022-09-12T19:50:29.519Z,10.20
2022-09-12T19:52:59.473Z,10.17
2022-09-12T19:55:29.478Z,10.15
2022-09-12T19:58:14.295Z,10.09
2022-09-12T20:00:43.638Z,10.04
2022-09-12T20:03:12.776Z,10.00
2022-09-12T20:05:43.002Z,9.97
2022-09-12T20:08:14.025Z,9.93
2022-09-12T20:10:44.529Z,9.91
2022-09-12T20:13:16.544Z,9.87
2022-09-12T20:15:50.543Z,9.83
2022-09-12T20:18:22.837Z,9.78
2022-09-12T20:20:55.762Z,9.72
2022-09-12T20:23:41.579Z,9.64
2022-09-12T20:26:11.675Z,9.59
2022-09-12T20:28:48.401Z,9.53
2022-09-12T20:31:34.757Z,9.47
2022-09-12T20:34:05.683Z,9.44
2022-09-12T20:36:37.714Z,9.41
2022-09-12T20:39:06.827Z,9.37
2022-09-12T20:41:36.896Z,9.34
2022-09-12T20:44:06.512Z,9.31
2022-09-12T20:46:35.389Z,9.25
2022-09-12T20:49:04.866Z,9.21
2022-09-12T20:51:36.778Z,9.18
2022-09-12T20:54:07.483Z,9.15
2022-09-12T20:56:37.653Z,9.12
2022-09-12T20:59:22.279Z,9.08
2022-09-12T21:01:51.210Z,9.03
2022-09-12T21:04:20.272Z,8.99
2022-09-12T21:06:48.912Z,8.95
2022-09-12T21:09:25.919Z,8.90
2022-09-12T21:11:55.159Z,8.87
2022-09-12T21:14:23.672Z,8.86
2022-09-12T21:16:53.034Z,8.83
2022-09-12T21:19:35.314Z,8.77
2022-09-12T21:22:04.440Z,8.71
2022-09-12T21:24:47.140Z,8.65
2022-09-12T21:27:30.023Z,8.59
2022-09-12T21:30:00.169Z,8.55
2022-09-12T21:32:35.084Z,8.53
2022-09-12T21:35:38.549Z,8.52
2022-09-12T21:38:07.914Z,8.47
2022-09-12T21:40:37.485Z,8.43
2022-09-12T21:43:11.843Z,8.39
2022-09-12T21:45:42.367Z,8.35
2022-09-12T21:48:11.936Z,8.33
2022-09-12T21:50:55.102Z,8.31
2022-09-12T21:53:24.679Z,8.30
2022-09-12T21:55:54.336Z,8.27
2022-09-12T21:58:37.789Z,8.24
2022-09-12T22:01:11.225Z,8.23
2022-09-12T22:03:54.036Z,8.22
2022-09-12T22:06:23.360Z,8.18
2022-09-12T22:09:06.689Z,8.15
2022-09-12T22:11:49.391Z,8.10
2022-09-12T22:14:18.063Z,8.06
2022-09-12T22:16:47.337Z,8.03
2022-09-12T22:19:16.407Z,7.99
2022-09-12T22:22:04.407Z,7.93
2022-09-12T22:24:47.349Z,7.90
2022-09-12T22:27:29.795Z,7.89
2022-09-12T22:30:13.247Z,7.87
2022-09-12T22:32:42.814Z,7.85
2022-09-12T22:35:11.988Z,7.84
2022-09-12T22:37:41.800Z,7.82
2022-09-12T22:40:12.587Z,7.80
2022-09-12T22:42:41.664Z,7.79
2022-09-12T22:45:10.914Z,7.74
2022-09-12T22:47:53.889Z,7.67
2022-09-12T22:50:23.242Z,7.63
2022-09-12T22:53:06.162Z,7.59
2022-09-12T22:55:48.989Z,7.57
2022-09-12T22:58:17.934Z,7.54
2022-09-12T23:00:53.079Z,7.51
2022-09-12T23:03:22.469Z,7.49
2022-09-12T23:05:51.995Z,7.45
2022-09-12T23:08:21.549Z,7.42
2022-09-12T23:10:51.064Z,7.37
2022-09-12T23:13:19.990Z,7.33
2022-09-12T23:15:57.475Z,7.30
2022-09-12T23:18:27.859Z,7.27
2022-09-12T23:21:09.829Z,7.25
2022-09-12T23:23:40.112Z,7.23
2022-09-12T23:26:18.702Z,7.19
2022-09-12T23:28:51.172Z,7.14
2022-09-12T23:31:21.608Z,7.10
2022-09-12T23:34:06.816Z,7.06
2022-09-12T23:36:36.522Z,7.05
2022-09-12T23:39:19.078Z,7.03
2022-09-12T23:42:01.567Z,7.00
2022-09-12T23:44:44.511Z,6.96
2022-09-12T23:47:13.647Z,6.91
2022-09-12T23:49:56.634Z,6.84
2022-09-12T23:52:25.686Z,6.77
2022-09-12T23:55:08.900Z,6.71
2022-09-12T23:57:39.575Z,6.68
